sensor_id;sensor_type;location;lat;lon;timestamp;temperature;humidity
1453;DHT22;720;47.738;7.998;2023-04-15T00:02:00;3.40;95.00
1453;DHT22;720;47.738;7.998;2023-04-15T00:04:26;3.50;94.80
1453;DHT22;720;47.738;7.998;2023-04-15T00:06:52;3.50;94.60
1453;DHT22;720;47.738;7.998;2023-04-15T00:09:20;3.50;94.50
1453;DHT22;720;47.738;7.998;2023-04-15T00:11:45;3.40;94.50
1453;DHT22;720;47.738;7.998;2023-04-15T00:14:12;3.40;94.50
1453;DHT22;720;47.738;7.998;2023-04-15T00:16:38;3.40;94.60
1453;DHT22;720;47.738;7.998;2023-04-15T00:19:03;3.40;94.60
1453;DHT22;720;47.738;7.998;2023-04-15T00:21:29;3.40;94.50
1453;DHT22;720;47.738;7.998;2023-04-15T00:23:55;3.30;94.60
1453;DHT22;720;47.738;7.998;2023-04-15T00:26:21;3.30;94.90
1453;DHT22;720;47.738;7.998;2023-04-15T00:28:47;3.40;95.10
1453;DHT22;720;47.738;7.998;2023-04-15T00:31:12;3.50;95.30
1453;DHT22;720;47.738;7.998;2023-04-15T00:33:38;3.60;95.50
1453;DHT22;720;47.738;7.998;2023-04-15T00:36:05;3.60;95.20
1453;DHT22;720;47.738;7.998;2023-04-15T00:38:31;3.70;95.20
1453;DHT22;720;47.738;7.998;2023-04-15T00:40:57;3.80;95.20
1453;DHT22;720;47.738;7.998;2023-04-15T00:43:23;3.90;95.50
1453;DHT22;720;47.738;7.998;2023-04-15T00:45:51;3.90;95.60
1453;DHT22;720;47.738;7.998;2023-04-15T00:48:18;4.00;95.60
1453;DHT22;720;47.738;7.998;2023-04-15T00:50:44;4.10;95.50
1453;DHT22;720;47.738;7.998;2023-04-15T00:53:10;4.20;95.30
1453;DHT22;720;47.738;7.998;2023-04-15T00:55:36;4.20;95.20
1453;DHT22;720;47.738;7.998;2023-04-15T00:58:02;4.20;95.20
1453;DHT22;720;47.738;7.998;2023-04-15T01:00:28;4.30;95.10
1453;DHT22;720;47.738;7.998;2023-04-15T01:02:54;4.40;95.30
1453;DHT22;720;47.738;7.998;2023-04-15T01:05:20;4.50;95.30
1453;DHT22;720;47.738;7.998;2023-04-15T01:07:47;4.60;95.00
1453;DHT22;720;47.738;7.998;2023-04-15T01:10:12;4.70;94.80
1453;DHT22;720;47.738;7.998;2023-04-15T01:12:38;4.70;94.90
1453;DHT22;720;47.738;7.998;2023-04-15T01:15:05;4.80;95.20
1453;DHT22;720;47.738;7.998;2023-04-15T01:17:31;4.70;95.20
1453;DHT22;720;47.738;7.998;2023-04-15T01:19:57;4.80;95.30
1453;DHT22;720;47.738;7.998;2023-04-15T01:22:23;4.80;95.30
1453;DHT22;720;47.738;7.998;2023-04-15T01:24:59;4.90;95.10
1453;DHT22;720;47.738;7.998;2023-04-15T01:27:26;4.90;94.90
1453;DHT22;720;47.738;7.998;2023-04-15T01:29:52;4.80;94.50
1453;DHT22;720;47.738;7.998;2023-04-15T01:32:18;4.80;94.80
1453;DHT22;720;47.738;7.998;2023-04-15T01:34:44;4.80;95.10
1453;DHT22;720;47.738;7.998;2023-04-15T01:37:10;4.90;95.20
1453;DHT22;720;47.738;7.998;2023-04-15T01:39:36;5.00;95.10
1453;DHT22;720;47.738;7.998;2023-04-15T01:42:01;4.90;94.60
1453;DHT22;720;47.738;7.998;2023-04-15T01:44:28;4.80;94.90
1453;DHT22;720;47.738;7.998;2023-04-15T01:46:54;4.90;95.20
1453;DHT22;720;47.738;7.998;2023-04-15T01:49:19;5.00;95.20
1453;DHT22;720;47.738;7.998;2023-04-15T01:51:45;5.10;95.10
1453;DHT22;720;47.738;7.998;2023-04-15T01:54:11;5.10;95.00
1453;DHT22;720;47.738;7.998;2023-04-15T01:56:36;5.20;95.00
1453;DHT22;720;47.738;7.998;2023-04-15T01:59:03;5.20;94.70
1453;DHT22;720;47.738;7.998;2023-04-15T02:01:28;5.30;94.80
1453;DHT22;720;47.738;7.998;2023-04-15T02:03:54;5.30;94.10
1453;DHT22;720;47.738;7.998;2023-04-15T02:06:20;5.30;94.40
1453;DHT22;720;47.738;7.998;2023-04-15T02:08:45;5.30;94.60
1453;DHT22;720;47.738;7.998;2023-04-15T02:11:11;5.20;94.80
1453;DHT22;720;47.738;7.998;2023-04-15T02:13:36;5.20;94.70
1453;DHT22;720;47.738;7.998;2023-04-15T02:16:02;5.30;94.80
1453;DHT22;720;47.738;7.998;2023-04-15T02:18:28;5.30;94.50
1453;DHT22;720;47.738;7.998;2023-04-15T02:20:54;5.20;94.20
1453;DHT22;720;47.738;7.998;2023-04-15T02:23:21;5.20;94.70
1453;DHT22;720;47.738;7.998;2023-04-15T02:25:47;5.40;94.80
1453;DHT22;720;47.738;7.998;2023-04-15T02:28:12;5.50;94.60
1453;DHT22;720;47.738;7.998;2023-04-15T02:30:38;5.50;94.80
1453;DHT22;720;47.738;7.998;2023-04-15T02:33:05;5.50;94.80
1453;DHT22;720;47.738;7.998;2023-04-15T02:35:32;5.50;94.60
1453;DHT22;720;47.738;7.998;2023-04-15T02:37:57;5.50;94.90
1453;DHT22;720;47.738;7.998;2023-04-15T02:40:23;5.40;95.10
1453;DHT22;720;47.738;7.998;2023-04-15T02:42:49;5.40;95.30
1453;DHT22;720;47.738;7.998;2023-04-15T02:45:14;5.50;95.20
1453;DHT22;720;47.738;7.998;2023-04-15T02:47:40;5.50;95.20
1453;DHT22;720;47.738;7.998;2023-04-15T02:50:08;5.50;95.30
1453;DHT22;720;47.738;7.998;2023-04-15T02:52:34;5.50;95.30
1453;DHT22;720;47.738;7.998;2023-04-15T02:55:00;5.50;95.40
1453;DHT22;720;47.738;7.998;2023-04-15T02:57:27;5.60;95.20
1453;DHT22;720;47.738;7.998;2023-04-15T02:59:55;5.70;95.30
1453;DHT22;720;47.738;7.998;2023-04-15T03:02:21;5.60;95.30
1453;DHT22;720;47.738;7.998;2023-04-15T03:04:46;5.50;95.20
1453;DHT22;720;47.738;7.998;2023-04-15T03:07:12;5.50;95.50
1453;DHT22;720;47.738;7.998;2023-04-15T03:09:37;5.60;96.00
1453;DHT22;720;47.738;7.998;2023-04-15T03:12:05;5.50;96.10
1453;DHT22;720;47.738;7.998;2023-04-15T03:14:31;5.50;95.40
1453;DHT22;720;47.738;7.998;2023-04-15T03:16:57;5.50;95.20
1453;DHT22;720;47.738;7.998;2023-04-15T03:19:24;5.60;94.70
1453;DHT22;720;47.738;7.998;2023-04-15T03:21:49;5.70;94.70
1453;DHT22;720;47.738;7.998;2023-04-15T03:24:16;5.70;94.60
1453;DHT22;720;47.738;7.998;2023-04-15T03:26:42;5.70;94.60
1453;DHT22;720;47.738;7.998;2023-04-15T03:29:07;5.80;95.00
1453;DHT22;720;47.738;7.998;2023-04-15T03:31:33;5.80;95.30
1453;DHT22;720;47.738;7.998;2023-04-15T03:33:59;5.80;95.50
1453;DHT22;720;47.738;7.998;2023-04-15T03:36:24;5.80;95.60
1453;DHT22;720;47.738;7.998;2023-04-15T03:38:50;5.80;95.70
1453;DHT22;720;47.738;7.998;2023-04-15T03:41:16;5.80;95.90
1453;DHT22;720;47.738;7.998;2023-04-15T03:43:41;5.80;95.50
1453;DHT22;720;47.738;7.998;2023-04-15T03:46:07;5.90;95.60
1453;DHT22;720;47.738;7.998;2023-04-15T03:48:33;5.90;95.60
1453;DHT22;720;47.738;7.998;2023-04-15T03:50:58;6.00;95.50
1453;DHT22;720;47.738;7.998;2023-04-15T03:53:24;6.00;95.40
1453;DHT22;720;47.738;7.998;2023-04-15T03:55:49;6.00;95.70
1453;DHT22;720;47.738;7.998;2023-04-15T03:58:15;6.10;95.70
1453;DHT22;720;47.738;7.998;2023-04-15T04:00:41;6.20;95.30
1453;DHT22;720;47.738;7.998;2023-04-15T04:03:07;6.20;95.10
1453;DHT22;720;47.738;7.998;2023-04-15T04:05:33;6.20;95.40
1453;DHT22;720;47.738;7.998;2023-04-15T04:08:01;6.20;95.20
1453;DHT22;720;47.738;7.998;2023-04-15T04:10:27;6.20;95.40
1453;DHT22;720;47.738;7.998;2023-04-15T04:12:52;6.00;95.70
1453;DHT22;720;47.738;7.998;2023-04-15T04:15:18;6.10;95.90
1453;DHT22;720;47.738;7.998;2023-04-15T04:17:43;6.20;95.70
1453;DHT22;720;47.738;7.998;2023-04-15T04:20:09;6.30;95.70
1453;DHT22;720;47.738;7.998;2023-04-15T04:22:39;6.20;95.80
1453;DHT22;720;47.738;7.998;2023-04-15T04:25:06;6.20;95.70
1453;DHT22;720;47.738;7.998;2023-04-15T04:27:33;6.10;95.60
1453;DHT22;720;47.738;7.998;2023-04-15T04:29:59;6.00;95.40
1453;DHT22;720;47.738;7.998;2023-04-15T04:32:24;6.00;95.70
1453;DHT22;720;47.738;7.998;2023-04-15T04:34:50;6.10;95.80
1453;DHT22;720;47.738;7.998;2023-04-15T04:37:16;6.00;95.90
1453;DHT22;720;47.738;7.998;2023-04-15T04:39:41;6.00;96.60
1453;DHT22;720;47.738;7.998;2023-04-15T04:42:07;6.00;96.70
1453;DHT22;720;47.738;7.998;2023-04-15T04:44:32;6.10;97.00
1453;DHT22;720;47.738;7.998;2023-04-15T04:46:58;6.10;96.80
1453;DHT22;720;47.738;7.998;2023-04-15T04:49:24;6.20;96.70
1453;DHT22;720;47.738;7.998;2023-04-15T04:51:50;6.20;96.70
1453;DHT22;720;47.738;7.998;2023-04-15T04:54:15;6.20;96.60
1453;DHT22;720;47.738;7.998;2023-04-15T04:56:42;6.20;96.80
1453;DHT22;720;47.738;7.998;2023-04-15T04:59:07;6.30;97.00
1453;DHT22;720;47.738;7.998;2023-04-15T05:01:33;6.30;97.20
1453;DHT22;720;47.738;7.998;2023-04-15T05:03:59;6.30;97.40
1453;DHT22;720;47.738;7.998;2023-04-15T05:06:25;6.40;97.50
1453;DHT22;720;47.738;7.998;2023-04-15T05:08:52;6.40;97.30
1453;DHT22;720;47.738;7.998;2023-04-15T05:11:17;6.60;96.90
1453;DHT22;720;47.738;7.998;2023-04-15T05:13:43;6.60;96.80
1453;DHT22;720;47.738;7.998;2023-04-15T05:16:08;6.60;96.60
1453;DHT22;720;47.738;7.998;2023-04-15T05:18:34;6.60;96.40
1453;DHT22;720;47.738;7.998;2023-04-15T05:21:01;6.60;96.30
1453;DHT22;720;47.738;7.998;2023-04-15T05:23:27;6.70;96.10
1453;DHT22;720;47.738;7.998;2023-04-15T05:25:52;6.70;96.20
1453;DHT22;720;47.738;7.998;2023-04-15T05:28:18;6.80;96.30
1453;DHT22;720;47.738;7.998;2023-04-15T05:30:44;6.80;96.40
1453;DHT22;720;47.738;7.998;2023-04-15T05:33:10;6.90;96.50
1453;DHT22;720;47.738;7.998;2023-04-15T05:35:35;6.90;96.30
1453;DHT22;720;47.738;7.998;2023-04-15T05:38:01;7.00;96.50
1453;DHT22;720;47.738;7.998;2023-04-15T05:40:26;7.00;96.80
1453;DHT22;720;47.738;7.998;2023-04-15T05:42:52;7.00;97.20
1453;DHT22;720;47.738;7.998;2023-04-15T05:45:18;7.20;97.00
1453;DHT22;720;47.738;7.998;2023-04-15T05:47:43;7.30;96.90
1453;DHT22;720;47.738;7.998;2023-04-15T05:50:09;7.40;96.80
1453;DHT22;720;47.738;7.998;2023-04-15T05:52:35;7.50;96.60
1453;DHT22;720;47.738;7.998;2023-04-15T05:55:01;7.50;95.90
1453;DHT22;720;47.738;7.998;2023-04-15T05:57:27;7.50;95.50
1453;DHT22;720;47.738;7.998;2023-04-15T05:59:52;7.40;95.40
1453;DHT22;720;47.738;7.998;2023-04-15T06:02:18;7.50;97.30
1453;DHT22;720;47.738;7.998;2023-04-15T06:04:44;8.20;99.40
1453;DHT22;720;47.738;7.998;2023-04-15T06:07:11;9.00;98.40
1453;DHT22;720;47.738;7.998;2023-04-15T06:09:37;9.70;96.40
1453;DHT22;720;47.738;7.998;2023-04-15T06:12:03;10.10;92.80
1453;DHT22;720;47.738;7.998;2023-04-15T06:14:29;10.30;91.20
1453;DHT22;720;47.738;7.998;2023-04-15T06:16:54;10.00;90.40
1453;DHT22;720;47.738;7.998;2023-04-15T06:19:20;9.70;90.70
1453;DHT22;720;47.738;7.998;2023-04-15T06:21:45;9.60;91.30
1453;DHT22;720;47.738;7.998;2023-04-15T06:24:11;9.50;91.50
1453;DHT22;720;47.738;7.998;2023-04-15T06:26:37;9.50;91.20
1453;DHT22;720;47.738;7.998;2023-04-15T06:29:03;9.30;90.10
1453;DHT22;720;47.738;7.998;2023-04-15T06:31:29;9.30;89.40
1453;DHT22;720;47.738;7.998;2023-04-15T06:33:54;9.30;86.50
1453;DHT22;720;47.738;7.998;2023-04-15T06:36:20;9.50;85.60
1453;DHT22;720;47.738;7.998;2023-04-15T06:38:46;9.70;82.80
1453;DHT22;720;47.738;7.998;2023-04-15T06:41:12;9.90;80.80
1453;DHT22;720;47.738;7.998;2023-04-15T06:43:38;10.10;79.90
1453;DHT22;720;47.738;7.998;2023-04-15T06:46:04;10.50;78.70
1453;DHT22;720;47.738;7.998;2023-04-15T06:48:29;10.70;76.30
1453;DHT22;720;47.738;7.998;2023-04-15T06:50:55;10.90;75.80
1453;DHT22;720;47.738;7.998;2023-04-15T06:53:23;10.90;74.90
1453;DHT22;720;47.738;7.998;2023-04-15T06:55:49;11.20;74.80
1453;DHT22;720;47.738;7.998;2023-04-15T06:58:15;11.60;74.10
1453;DHT22;720;47.738;7.998;2023-04-15T07:00:41;11.90;72.50
1453;DHT22;720;47.738;7.998;2023-04-15T07:03:07;12.00;72.00
1453;DHT22;720;47.738;7.998;2023-04-15T07:05:35;12.00;73.30
1453;DHT22;720;47.738;7.998;2023-04-15T07:08:01;11.90;73.90
1453;DHT22;720;47.738;7.998;2023-04-15T07:10:26;11.50;75.30
1453;DHT22;720;47.738;7.998;2023-04-15T07:12:52;11.20;76.90
1453;DHT22;720;47.738;7.998;2023-04-15T07:15:17;11.00;78.00
1453;DHT22;720;47.738;7.998;2023-04-15T07:17:43;11.00;79.10
1453;DHT22;720;47.738;7.998;2023-04-15T07:20:09;11.00;78.30
1453;DHT22;720;47.738;7.998;2023-04-15T07:22:35;11.00;77.30
1453;DHT22;720;47.738;7.998;2023-04-15T07:25:00;10.80;78.30
1453;DHT22;720;47.738;7.998;2023-04-15T07:27:26;10.80;78.80
1453;DHT22;720;47.738;7.998;2023-04-15T07:29:52;10.80;79.30
1453;DHT22;720;47.738;7.998;2023-04-15T07:32:18;10.90;79.50
1453;DHT22;720;47.738;7.998;2023-04-15T07:34:44;10.80;79.10
1453;DHT22;720;47.738;7.998;2023-04-15T07:37:10;10.60;79.10
1453;DHT22;720;47.738;7.998;2023-04-15T07:39:35;10.40;79.40
1453;DHT22;720;47.738;7.998;2023-04-15T07:42:02;10.00;81.70
1453;DHT22;720;47.738;7.998;2023-04-15T07:44:28;10.00;81.90
1453;DHT22;720;47.738;7.998;2023-04-15T07:46:55;9.90;81.40
1453;DHT22;720;47.738;7.998;2023-04-15T07:49:20;9.90;82.70
1453;DHT22;720;47.738;7.998;2023-04-15T07:51:47;10.20;86.50
1453;DHT22;720;47.738;7.998;2023-04-15T07:54:13;10.80;89.00
1453;DHT22;720;47.738;7.998;2023-04-15T07:56:39;11.30;84.40
1453;DHT22;720;47.738;7.998;2023-04-15T07:59:05;11.70;82.10
1453;DHT22;720;47.738;7.998;2023-04-15T08:01:32;11.90;79.20
1453;DHT22;720;47.738;7.998;2023-04-15T08:03:58;11.90;77.40
1453;DHT22;720;47.738;7.998;2023-04-15T08:06:24;11.50;77.50
1453;DHT22;720;47.738;7.998;2023-04-15T08:08:50;11.10;79.20
1453;DHT22;720;47.738;7.998;2023-04-15T08:11:16;11.00;79.40
1453;DHT22;720;47.738;7.998;2023-04-15T08:13:41;11.00;79.90
1453;DHT22;720;47.738;7.998;2023-04-15T08:16:20;11.10;79.80
1453;DHT22;720;47.738;7.998;2023-04-15T08:18:47;11.20;79.30
1453;DHT22;720;47.738;7.998;2023-04-15T08:21:14;11.20;77.80
1453;DHT22;720;47.738;7.998;2023-04-15T08:23:40;11.30;77.40
1453;DHT22;720;47.738;7.998;2023-04-15T08:26:06;11.20;78.10
1453;DHT22;720;47.738;7.998;2023-04-15T08:28:33;10.60;77.80
1453;DHT22;720;47.738;7.998;2023-04-15T08:30:58;10.60;78.40
1453;DHT22;720;47.738;7.998;2023-04-15T08:33:24;10.70;79.00
1453;DHT22;720;47.738;7.998;2023-04-15T08:35:50;10.70;79.30
1453;DHT22;720;47.738;7.998;2023-04-15T08:38:16;10.70;78.20
1453;DHT22;720;47.738;7.998;2023-04-15T08:40:44;10.80;76.50
1453;DHT22;720;47.738;7.998;2023-04-15T08:43:14;10.90;75.90
1453;DHT22;720;47.738;7.998;2023-04-15T08:45:42;11.10;75.60
1453;DHT22;720;47.738;7.998;2023-04-15T08:48:13;11.10;75.10
1453;DHT22;720;47.738;7.998;2023-04-15T08:50:41;11.10;74.60
1453;DHT22;720;47.738;7.998;2023-04-15T08:53:06;10.90;73.10
1453;DHT22;720;47.738;7.998;2023-04-15T08:55:35;11.00;73.60
1453;DHT22;720;47.738;7.998;2023-04-15T08:58:04;11.00;72.40
1453;DHT22;720;47.738;7.998;2023-04-15T09:00:31;10.70;73.40
1453;DHT22;720;47.738;7.998;2023-04-15T09:02:58;10.60;74.50
1453;DHT22;720;47.738;7.998;2023-04-15T09:05:23;10.70;72.90
1453;DHT22;720;47.738;7.998;2023-04-15T09:07:50;10.50;73.40
1453;DHT22;720;47.738;7.998;2023-04-15T09:10:16;10.40;73.30
1453;DHT22;720;47.738;7.998;2023-04-15T09:12:42;10.30;74.80
1453;DHT22;720;47.738;7.998;2023-04-15T09:15:10;10.40;75.40
1453;DHT22;720;47.738;7.998;2023-04-15T09:17:41;10.70;76.00
1453;DHT22;720;47.738;7.998;2023-04-15T09:20:12;11.20;76.30
1453;DHT22;720;47.738;7.998;2023-04-15T09:22:42;11.50;76.00
1453;DHT22;720;47.738;7.998;2023-04-15T09:25:25;12.00;76.60
1453;DHT22;720;47.738;7.998;2023-04-15T09:27:58;11.90;72.50
1453;DHT22;720;47.738;7.998;2023-04-15T09:30:24;12.00;72.00
1453;DHT22;720;47.738;7.998;2023-04-15T09:32:56;12.20;71.30
1453;DHT22;720;47.738;7.998;2023-04-15T09:35:23;11.90;67.80
1453;DHT22;720;47.738;7.998;2023-04-15T09:37:49;11.40;67.00
1453;DHT22;720;47.738;7.998;2023-04-15T09:40:33;11.10;68.90
1453;DHT22;720;47.738;7.998;2023-04-15T09:43:00;10.80;70.70
1453;DHT22;720;47.738;7.998;2023-04-15T09:45:30;10.80;72.10
1453;DHT22;720;47.738;7.998;2023-04-15T09:48:14;10.90;72.10
1453;DHT22;720;47.738;7.998;2023-04-15T09:50:41;11.30;73.60
1453;DHT22;720;47.738;7.998;2023-04-15T09:53:10;12.00;69.10
1453;DHT22;720;47.738;7.998;2023-04-15T09:55:44;12.60;67.40
1453;DHT22;720;47.738;7.998;2023-04-15T09:58:17;12.90;64.60
1453;DHT22;720;47.738;7.998;2023-04-15T10:00:46;13.20;65.50
1453;DHT22;720;47.738;7.998;2023-04-15T10:03:12;13.40;65.10
1453;DHT22;720;47.738;7.998;2023-04-15T10:05:39;13.50;64.60
1453;DHT22;720;47.738;7.998;2023-04-15T10:08:05;12.70;65.70
1453;DHT22;720;47.738;7.998;2023-04-15T10:10:31;12.50;68.00
1453;DHT22;720;47.738;7.998;2023-04-15T10:12:57;12.70;67.10
1453;DHT22;720;47.738;7.998;2023-04-15T10:15:24;12.90;67.40
1453;DHT22;720;47.738;7.998;2023-04-15T10:17:52;12.90;64.80
1453;DHT22;720;47.738;7.998;2023-04-15T10:20:19;13.10;64.00
1453;DHT22;720;47.738;7.998;2023-04-15T10:22:47;13.30;63.80
1453;DHT22;720;47.738;7.998;2023-04-15T10:25:14;13.40;67.40
1453;DHT22;720;47.738;7.998;2023-04-15T10:27:40;14.00;66.50
1453;DHT22;720;47.738;7.998;2023-04-15T10:30:07;14.40;63.40
1453;DHT22;720;47.738;7.998;2023-04-15T10:32:33;14.30;61.90
1453;DHT22;720;47.738;7.998;2023-04-15T10:35:00;14.30;62.70
1453;DHT22;720;47.738;7.998;2023-04-15T10:37:37;14.60;61.10
1453;DHT22;720;47.738;7.998;2023-04-15T10:40:30;14.60;59.60
1453;DHT22;720;47.738;7.998;2023-04-15T10:43:01;14.30;60.60
1453;DHT22;720;47.738;7.998;2023-04-15T10:45:37;14.30;59.40
1453;DHT22;720;47.738;7.998;2023-04-15T10:48:05;14.20;59.50
1453;DHT22;720;47.738;7.998;2023-04-15T10:50:32;14.00;60.10
1453;DHT22;720;47.738;7.998;2023-04-15T10:52:58;14.20;60.10
1453;DHT22;720;47.738;7.998;2023-04-15T10:55:31;14.30;59.90
1453;DHT22;720;47.738;7.998;2023-04-15T10:58:01;14.20;59.00
1453;DHT22;720;47.738;7.998;2023-04-15T11:00:31;14.10;60.10
1453;DHT22;720;47.738;7.998;2023-04-15T11:03:03;14.00;59.40
1453;DHT22;720;47.738;7.998;2023-04-15T11:05:59;13.70;61.70
1453;DHT22;720;47.738;7.998;2023-04-15T11:09:00;13.60;60.40
1453;DHT22;720;47.738;7.998;2023-04-15T11:14:32;13.30;62.10
1453;DHT22;720;47.738;7.998;2023-04-15T11:16:58;13.50;62.50
1453;DHT22;720;47.738;7.998;2023-04-15T11:19:24;13.50;63.50
1453;DHT22;720;47.738;7.998;2023-04-15T11:21:50;13.30;63.90
1453;DHT22;720;47.738;7.998;2023-04-15T11:24:23;13.10;64.80
1453;DHT22;720;47.738;7.998;2023-04-15T11:26:58;12.70;67.20
1453;DHT22;720;47.738;7.998;2023-04-15T11:29:32;12.60;65.90
1453;DHT22;720;47.738;7.998;2023-04-15T11:32:05;12.50;66.60
1453;DHT22;720;47.738;7.998;2023-04-15T11:34:31;12.60;67.70
1453;DHT22;720;47.738;7.998;2023-04-15T11:36:57;12.60;67.10
1453;DHT22;720;47.738;7.998;2023-04-15T11:39:23;12.40;68.10
1453;DHT22;720;47.738;7.998;2023-04-15T11:41:48;12.40;69.00
1453;DHT22;720;47.738;7.998;2023-04-15T11:44:17;12.60;68.30
1453;DHT22;720;47.738;7.998;2023-04-15T11:46:43;12.50;68.90
1453;DHT22;720;47.738;7.998;2023-04-15T11:49:08;12.70;68.10
1453;DHT22;720;47.738;7.998;2023-04-15T11:51:35;12.80;68.00
1453;DHT22;720;47.738;7.998;2023-04-15T11:54:00;12.70;68.30
1453;DHT22;720;47.738;7.998;2023-04-15T11:56:26;12.70;68.50
1453;DHT22;720;47.738;7.998;2023-04-15T11:58:56;12.80;69.50
1453;DHT22;720;47.738;7.998;2023-04-15T12:01:37;12.90;69.70
1453;DHT22;720;47.738;7.998;2023-04-15T12:04:16;12.70;69.80
1453;DHT22;720;47.738;7.998;2023-04-15T12:06:45;12.50;70.30
1453;DHT22;720;47.738;7.998;2023-04-15T12:09:11;12.50;71.90
1453;DHT22;720;47.738;7.998;2023-04-15T12:11:43;12.30;72.80
1453;DHT22;720;47.738;7.998;2023-04-15T12:16:40;12.30;71.20
1453;DHT22;720;47.738;7.998;2023-04-15T12:19:12;12.40;70.60
1453;DHT22;720;47.738;7.998;2023-04-15T12:21:40;12.40;70.60
1453;DHT22;720;47.738;7.998;2023-04-15T12:24:08;12.30;71.20
1453;DHT22;720;47.738;7.998;2023-04-15T12:26:36;12.10;72.60
1453;DHT22;720;47.738;7.998;2023-04-15T12:29:05;11.90;74.40
1453;DHT22;720;47.738;7.998;2023-04-15T12:31:31;11.70;75.10
1453;DHT22;720;47.738;7.998;2023-04-15T12:33:58;11.60;76.80
1453;DHT22;720;47.738;7.998;2023-04-15T12:36:25;11.40;77.70
1453;DHT22;720;47.738;7.998;2023-04-15T12:38:51;11.40;78.90
1453;DHT22;720;47.738;7.998;2023-04-15T12:41:17;11.40;80.20
1453;DHT22;720;47.738;7.998;2023-04-15T12:43:44;11.40;81.30
1453;DHT22;720;47.738;7.998;2023-04-15T12:46:12;11.70;84.00
1453;DHT22;720;47.738;7.998;2023-04-15T12:48:38;12.10;83.80
1453;DHT22;720;47.738;7.998;2023-04-15T12:51:04;12.50;82.50
1453;DHT22;720;47.738;7.998;2023-04-15T12:53:30;12.80;79.20
1453;DHT22;720;47.738;7.998;2023-04-15T12:55:55;12.70;77.90
1453;DHT22;720;47.738;7.998;2023-04-15T12:58:21;12.60;77.60
1453;DHT22;720;47.738;7.998;2023-04-15T13:00:47;12.30;77.40
1453;DHT22;720;47.738;7.998;2023-04-15T13:03:14;12.00;79.00
1453;DHT22;720;47.738;7.998;2023-04-15T13:05:39;11.80;80.40
1453;DHT22;720;47.738;7.998;2023-04-15T13:08:05;11.70;82.00
1453;DHT22;720;47.738;7.998;2023-04-15T13:10:31;11.50;82.20
1453;DHT22;720;47.738;7.998;2023-04-15T13:12:57;11.40;83.30
1453;DHT22;720;47.738;7.998;2023-04-15T13:15:23;11.40;85.40
1453;DHT22;720;47.738;7.998;2023-04-15T13:17:50;11.00;85.40
1453;DHT22;720;47.738;7.998;2023-04-15T13:20:15;10.90;86.40
1453;DHT22;720;47.738;7.998;2023-04-15T13:22:41;10.90;85.90
1453;DHT22;720;47.738;7.998;2023-04-15T13:25:07;11.10;86.10
1453;DHT22;720;47.738;7.998;2023-04-15T13:27:33;11.40;85.70
1453;DHT22;720;47.738;7.998;2023-04-15T13:29:59;11.60;83.90
1453;DHT22;720;47.738;7.998;2023-04-15T13:32:25;11.90;82.50
1453;DHT22;720;47.738;7.998;2023-04-15T13:34:50;12.10;82.90
1453;DHT22;720;47.738;7.998;2023-04-15T13:37:16;12.20;82.10
1453;DHT22;720;47.738;7.998;2023-04-15T13:39:42;12.00;83.00
1453;DHT22;720;47.738;7.998;2023-04-15T13:42:08;11.50;83.50
1453;DHT22;720;47.738;7.998;2023-04-15T13:44:34;11.00;85.70
1453;DHT22;720;47.738;7.998;2023-04-15T13:46:59;10.70;88.10
1453;DHT22;720;47.738;7.998;2023-04-15T13:49:25;10.70;88.70
1453;DHT22;720;47.738;7.998;2023-04-15T13:51:51;10.60;89.50
1453;DHT22;720;47.738;7.998;2023-04-15T13:54:16;10.50;90.10
1453;DHT22;720;47.738;7.998;2023-04-15T13:56:42;10.30;90.60
1453;DHT22;720;47.738;7.998;2023-04-15T13:59:08;10.30;91.50
1453;DHT22;720;47.738;7.998;2023-04-15T14:01:34;10.40;92.00
1453;DHT22;720;47.738;7.998;2023-04-15T14:04:00;10.50;92.10
1453;DHT22;720;47.738;7.998;2023-04-15T14:06:29;11.00;91.80
1453;DHT22;720;47.738;7.998;2023-04-15T14:08:56;11.40;91.10
1453;DHT22;720;47.738;7.998;2023-04-15T14:11:21;11.20;90.10
1453;DHT22;720;47.738;7.998;2023-04-15T14:13:47;11.00;90.70
1453;DHT22;720;47.738;7.998;2023-04-15T14:16:13;10.80;91.60
1453;DHT22;720;47.738;7.998;2023-04-15T14:18:39;10.70;92.80
1453;DHT22;720;47.738;7.998;2023-04-15T14:21:05;10.70;93.30
1453;DHT22;720;47.738;7.998;2023-04-15T14:23:31;10.60;92.60
1453;DHT22;720;47.738;7.998;2023-04-15T14:26:00;10.60;93.20
1453;DHT22;720;47.738;7.998;2023-04-15T14:28:25;10.70;93.30
1453;DHT22;720;47.738;7.998;2023-04-15T14:30:51;10.90;94.00
1453;DHT22;720;47.738;7.998;2023-04-15T14:33:18;10.90;93.10
1453;DHT22;720;47.738;7.998;2023-04-15T14:35:44;10.80;92.90
1453;DHT22;720;47.738;7.998;2023-04-15T14:38:10;10.50;93.50
1453;DHT22;720;47.738;7.998;2023-04-15T14:40:36;10.20;94.10
1453;DHT22;720;47.738;7.998;2023-04-15T14:43:02;10.00;94.60
1453;DHT22;720;47.738;7.998;2023-04-15T14:45:29;9.90;95.60
1453;DHT22;720;47.738;7.998;2023-04-15T14:47:55;9.80;95.60
1453;DHT22;720;47.738;7.998;2023-04-15T14:50:21;9.60;96.00
1453;DHT22;720;47.738;7.998;2023-04-15T14:52:46;9.50;96.70
1453;DHT22;720;47.738;7.998;2023-04-15T14:55:12;9.40;97.80
1453;DHT22;720;47.738;7.998;2023-04-15T14:57:42;9.50;98.20
1453;DHT22;720;47.738;7.998;2023-04-15T15:00:09;9.50;98.50
1453;DHT22;720;47.738;7.998;2023-04-15T15:02:37;9.40;98.40
1453;DHT22;720;47.738;7.998;2023-04-15T15:05:03;9.50;98.70
1453;DHT22;720;47.738;7.998;2023-04-15T15:07:29;9.50;98.40
1453;DHT22;720;47.738;7.998;2023-04-15T15:09:54;9.40;98.50
1453;DHT22;720;47.738;7.998;2023-04-15T15:12:20;9.20;99.10
1453;DHT22;720;47.738;7.998;2023-04-15T15:14:47;9.20;99.40
1453;DHT22;720;47.738;7.998;2023-04-15T15:17:13;9.10;99.30
1453;DHT22;720;47.738;7.998;2023-04-15T15:19:39;9.00;99.30
1453;DHT22;720;47.738;7.998;2023-04-15T15:22:05;8.90;99.50
1453;DHT22;720;47.738;7.998;2023-04-15T15:24:31;8.90;99.90
1453;DHT22;720;47.738;7.998;2023-04-15T15:26:56;9.00;99.90
1453;DHT22;720;47.738;7.998;2023-04-15T15:29:22;9.10;99.60
1453;DHT22;720;47.738;7.998;2023-04-15T15:31:48;9.10;99.90
1453;DHT22;720;47.738;7.998;2023-04-15T15:34:15;9.10;99.90
1453;DHT22;720;47.738;7.998;2023-04-15T15:36:41;9.20;99.90
1453;DHT22;720;47.738;7.998;2023-04-15T15:39:07;9.30;99.80
1453;DHT22;720;47.738;7.998;2023-04-15T15:41:33;9.40;99.50
1453;DHT22;720;47.738;7.998;2023-04-15T15:43:59;9.60;99.30
1453;DHT22;720;47.738;7.998;2023-04-15T15:46:25;9.80;99.20
1453;DHT22;720;47.738;7.998;2023-04-15T15:48:52;9.90;98.10
1453;DHT22;720;47.738;7.998;2023-04-15T15:51:19;9.90;97.50
1453;DHT22;720;47.738;7.998;2023-04-15T15:53:45;9.70;97.80
1453;DHT22;720;47.738;7.998;2023-04-15T15:56:11;9.70;98.30
1453;DHT22;720;47.738;7.998;2023-04-15T15:58:37;9.70;98.60
1453;DHT22;720;47.738;7.998;2023-04-15T16:01:03;9.70;98.50
1453;DHT22;720;47.738;7.998;2023-04-15T16:03:28;9.80;98.70
1453;DHT22;720;47.738;7.998;2023-04-15T16:05:54;9.90;98.50
1453;DHT22;720;47.738;7.998;2023-04-15T16:08:19;9.80;98.10
1453;DHT22;720;47.738;7.998;2023-04-15T16:10:45;9.80;98.60
1453;DHT22;720;47.738;7.998;2023-04-15T16:13:11;9.90;98.60
1453;DHT22;720;47.738;7.998;2023-04-15T16:15:37;9.90;98.40
1453;DHT22;720;47.738;7.998;2023-04-15T16:18:03;9.90;98.50
1453;DHT22;720;47.738;7.998;2023-04-15T16:20:29;9.90;98.50
1453;DHT22;720;47.738;7.998;2023-04-15T16:22:56;9.90;98.50
1453;DHT22;720;47.738;7.998;2023-04-15T16:25:22;9.80;98.40
1453;DHT22;720;47.738;7.998;2023-04-15T16:27:48;9.80;99.20
1453;DHT22;720;47.738;7.998;2023-04-15T16:30:14;9.90;98.40